sensor_id;sensor_type;location;lat;lon;timestamp;pressure;altitude;pressure_sealevel;temperature;humidity
65718;BME280;52445;52.466;-1.016;2023-05-25T00:00:58;101337.06;;;14.46;57.29
65718;BME280;52445;52.466;-1.016;2023-05-25T00:03:29;101335.34;;;14.50;57.75
65718;BME280;52445;52.466;-1.016;2023-05-25T00:05:57;101335.34;;;14.51;57.36
65718;BME280;52445;52.466;-1.016;2023-05-25T00:08:27;101334.47;;;14.54;57.08
65718;BME280;52445;52.466;-1.016;2023-05-25T00:10:54;101337.09;;;14.56;57.17
65718;BME280;52445;52.466;-1.016;2023-05-25T00:13:21;101327.53;;;14.58;57.02
65718;BME280;52445;52.466;-1.016;2023-05-25T00:15:47;101324.06;;;14.57;56.94
65718;BME280;52445;52.466;-1.016;2023-05-25T00:18:14;101334.50;;;14.57;57.55
65718;BME280;52445;52.466;-1.016;2023-05-25T00:20:41;101330.13;;;14.59;57.59
65718;BME280;52445;52.466;-1.016;2023-05-25T00:23:09;101331.91;;;14.59;57.62
65718;BME280;52445;52.466;-1.016;2023-05-25T00:25:37;101337.97;;;14.59;57.14
65718;BME280;52445;52.466;-1.016;2023-05-25T00:28:04;101338.84;;;14.58;57.86
65718;BME280;52445;52.466;-1.016;2023-05-25T00:30:31;101341.44;;;14.58;57.98
65718;BME280;52445;52.466;-1.016;2023-05-25T00:32:58;101340.56;;;14.59;58.30
65718;BME280;52445;52.466;-1.016;2023-05-25T00:35:27;101339.72;;;14.57;57.79
65718;BME280;52445;52.466;-1.016;2023-05-25T00:37:53;101348.38;;;14.59;57.69
65718;BME280;52445;52.466;-1.016;2023-05-25T00:40:20;101338.84;;;14.60;58.05
65718;BME280;52445;52.466;-1.016;2023-05-25T00:42:47;101341.44;;;14.61;57.92
65718;BME280;52445;52.466;-1.016;2023-05-25T00:45:14;101343.19;;;14.62;57.33
65718;BME280;52445;52.466;-1.016;2023-05-25T00:47:42;101343.19;;;14.64;58.03
65718;BME280;52445;52.466;-1.016;2023-05-25T00:50:13;101347.53;;;14.65;57.78
65718;BME280;52445;52.466;-1.016;2023-05-25T00:52:40;101355.34;;;14.67;58.30
65718;BME280;52445;52.466;-1.016;2023-05-25T00:55:08;101356.22;;;14.67;57.43
65718;BME280;52445;52.466;-1.016;2023-05-25T00:57:39;101360.56;;;14.70;57.58
65718;BME280;52445;52.466;-1.016;2023-05-25T01:00:07;101362.31;;;14.71;58.25
65718;BME280;52445;52.466;-1.016;2023-05-25T01:02:39;101361.47;;;14.70;57.95
65718;BME280;52445;52.466;-1.016;2023-05-25T01:05:10;101364.03;;;14.72;58.00
65718;BME280;52445;52.466;-1.016;2023-05-25T01:07:38;101359.72;;;14.72;57.62
65718;BME280;52445;52.466;-1.016;2023-05-25T01:10:07;101363.19;;;14.57;57.96
65718;BME280;52445;52.466;-1.016;2023-05-25T01:12:37;101364.91;;;14.71;57.61
65718;BME280;52445;52.466;-1.016;2023-05-25T01:15:04;101371.03;;;14.73;57.59
65718;BME280;52445;52.466;-1.016;2023-05-25T01:17:31;101367.53;;;14.74;57.30
65718;BME280;52445;52.466;-1.016;2023-05-25T01:19:58;101377.97;;;14.74;57.79
65718;BME280;52445;52.466;-1.016;2023-05-25T01:25:17;101369.25;;;14.75;57.74
65718;BME280;52445;52.466;-1.016;2023-05-25T01:27:56;101369.25;;;14.75;57.99
65718;BME280;52445;52.466;-1.016;2023-05-25T01:30:25;101365.81;;;14.76;57.76
65718;BME280;52445;52.466;-1.016;2023-05-25T01:32:52;101371.88;;;14.76;57.56
65718;BME280;52445;52.466;-1.016;2023-05-25T01:35:20;101372.78;;;14.77;57.38
65718;BME280;52445;52.466;-1.016;2023-05-25T01:37:49;101364.06;;;14.76;57.63
65718;BME280;52445;52.466;-1.016;2023-05-25T01:40:17;101376.25;;;14.76;58.03
65718;BME280;52445;52.466;-1.016;2023-05-25T01:42:43;101370.16;;;14.75;58.01
65718;BME280;52445;52.466;-1.016;2023-05-25T01:45:12;101370.16;;;14.75;58.10
65718;BME280;52445;52.466;-1.016;2023-05-25T01:53:10;101370.16;;;14.74;58.41
65718;BME280;52445;52.466;-1.016;2023-05-25T01:55:47;101372.75;;;14.71;57.91
65718;BME280;52445;52.466;-1.016;2023-05-25T01:58:18;101369.25;;;14.73;58.33
65718;BME280;52445;52.466;-1.016;2023-05-25T02:00:48;101366.66;;;14.73;58.43
65718;BME280;52445;52.466;-1.016;2023-05-25T02:03:17;101376.22;;;14.73;58.32
65718;BME280;52445;52.466;-1.016;2023-05-25T02:05:44;101378.84;;;14.73;58.51
65718;BME280;52445;52.466;-1.016;2023-05-25T02:08:11;101369.25;;;14.75;58.01
65718;BME280;52445;52.466;-1.016;2023-05-25T02:10:38;101371.03;;;14.73;57.98
65718;BME280;52445;52.466;-1.016;2023-05-25T02:13:05;101371.88;;;14.73;58.17
65718;BME280;52445;52.466;-1.016;2023-05-25T02:15:32;101371.88;;;14.73;58.44
65718;BME280;52445;52.466;-1.016;2023-05-25T02:17:59;101371.03;;;14.73;58.28
65718;BME280;52445;52.466;-1.016;2023-05-25T02:20:26;101379.69;;;14.72;58.20
65718;BME280;52445;52.466;-1.016;2023-05-25T02:22:53;101368.41;;;14.71;58.74
65718;BME280;52445;52.466;-1.016;2023-05-25T02:25:20;101375.34;;;14.71;58.39
65718;BME280;52445;52.466;-1.016;2023-05-25T02:27:47;101371.88;;;14.70;58.92
65718;BME280;52445;52.466;-1.016;2023-05-25T02:30:13;101372.75;;;14.71;58.53
65718;BME280;52445;52.466;-1.016;2023-05-25T02:32:40;101372.72;;;14.68;58.41
65718;BME280;52445;52.466;-1.016;2023-05-25T02:35:07;101374.50;;;14.69;59.29
65718;BME280;52445;52.466;-1.016;2023-05-25T02:37:34;101371.88;;;14.69;58.70
65718;BME280;52445;52.466;-1.016;2023-05-25T02:40:01;101371.00;;;14.68;58.78
65718;BME280;52445;52.466;-1.016;2023-05-25T02:42:27;101377.94;;;14.68;58.62
65718;BME280;52445;52.466;-1.016;2023-05-25T02:44:54;101371.00;;;14.67;59.22
65718;BME280;52445;52.466;-1.016;2023-05-25T02:47:21;101364.91;;;14.68;59.10
65718;BME280;52445;52.466;-1.016;2023-05-25T02:49:48;101371.88;;;14.67;59.16
65718;BME280;52445;52.466;-1.016;2023-05-25T02:52:14;101367.50;;;14.68;58.66
65718;BME280;52445;52.466;-1.016;2023-05-25T02:54:41;101370.13;;;14.68;59.50
65718;BME280;52445;52.466;-1.016;2023-05-25T02:57:08;101369.28;;;14.67;59.15
65718;BME280;52445;52.466;-1.016;2023-05-25T02:59:35;101365.78;;;14.67;59.54
65718;BME280;52445;52.466;-1.016;2023-05-25T03:02:02;101367.50;;;14.68;59.14
65718;BME280;52445;52.466;-1.016;2023-05-25T03:04:29;101367.50;;;14.68;59.31
65718;BME280;52445;52.466;-1.016;2023-05-25T03:06:59;101371.00;;;14.68;59.46
65718;BME280;52445;52.466;-1.016;2023-05-25T03:09:26;101372.72;;;14.68;59.07
65718;BME280;52445;52.466;-1.016;2023-05-25T03:11:53;101375.34;;;14.68;59.07
65718;BME280;52445;52.466;-1.016;2023-05-25T03:14:19;101382.31;;;14.65;59.43
65718;BME280;52445;52.466;-1.016;2023-05-25T03:16:46;101386.66;;;14.67;59.41
65718;BME280;52445;52.466;-1.016;2023-05-25T03:19:13;101384.03;;;14.68;59.55
65718;BME280;52445;52.466;-1.016;2023-05-25T03:21:39;101383.16;;;14.68;59.64
65718;BME280;52445;52.466;-1.016;2023-05-25T03:24:06;101391.84;;;14.67;59.47
65718;BME280;52445;52.466;-1.016;2023-05-25T03:26:33;101396.22;;;14.66;59.66
65718;BME280;52445;52.466;-1.016;2023-05-25T03:29:00;101395.34;;;14.65;59.57
65718;BME280;52445;52.466;-1.016;2023-05-25T03:31:26;101399.66;;;14.63;59.08
65718;BME280;52445;52.466;-1.016;2023-05-25T03:33:53;101398.81;;;14.60;59.92
65718;BME280;52445;52.466;-1.016;2023-05-25T03:36:19;101404.00;;;14.58;59.46
65718;BME280;52445;52.466;-1.016;2023-05-25T03:38:47;101405.72;;;14.56;59.51
65718;BME280;52445;52.466;-1.016;2023-05-25T03:41:14;101397.91;;;14.56;59.49
65718;BME280;52445;52.466;-1.016;2023-05-25T03:43:40;101398.78;;;14.55;59.90
65718;BME280;52445;52.466;-1.016;2023-05-25T03:46:07;101397.94;;;14.55;59.77
65718;BME280;52445;52.466;-1.016;2023-05-25T03:48:37;101403.13;;;14.56;59.16
65718;BME280;52445;52.466;-1.016;2023-05-25T03:51:03;101403.16;;;14.55;59.64
65718;BME280;52445;52.466;-1.016;2023-05-25T03:53:30;101397.94;;;14.53;59.26
65718;BME280;52445;52.466;-1.016;2023-05-25T03:55:57;101408.34;;;14.51;59.77
65718;BME280;52445;52.466;-1.016;2023-05-25T03:58:24;101400.53;;;14.50;59.60
65718;BME280;52445;52.466;-1.016;2023-05-25T04:00:51;101403.13;;;14.50;58.92
65718;BME280;52445;52.466;-1.016;2023-05-25T04:03:18;101397.91;;;14.48;59.48
65718;BME280;52445;52.466;-1.016;2023-05-25T04:05:46;101392.69;;;14.48;59.55
65718;BME280;52445;52.466;-1.016;2023-05-25T04:08:14;101404.00;;;14.49;59.39
65718;BME280;52445;52.466;-1.016;2023-05-25T04:10:44;101395.31;;;14.50;58.82
65718;BME280;52445;52.466;-1.016;2023-05-25T04:13:11;101402.25;;;14.52;59.59
65718;BME280;52445;52.466;-1.016;2023-05-25T04:15:38;101397.06;;;14.52;59.44
65718;BME280;52445;52.466;-1.016;2023-05-25T04:18:05;101397.06;;;14.54;59.36
65718;BME280;52445;52.466;-1.016;2023-05-25T04:20:32;101405.75;;;14.55;58.74
65718;BME280;52445;52.466;-1.016;2023-05-25T04:22:58;101401.41;;;14.57;59.19
65718;BME280;52445;52.466;-1.016;2023-05-25T04:25:25;101404.88;;;14.56;59.12
65718;BME280;52445;52.466;-1.016;2023-05-25T04:27:54;101409.22;;;14.55;59.49
65718;BME280;52445;52.466;-1.016;2023-05-25T04:30:22;101407.47;;;14.54;59.17
65718;BME280;52445;52.466;-1.016;2023-05-25T04:32:49;101405.75;;;14.50;59.50
65718;BME280;52445;52.466;-1.016;2023-05-25T04:35:16;101416.13;;;14.45;59.10
65718;BME280;52445;52.466;-1.016;2023-05-25T04:37:46;101417.00;;;14.41;58.76
65718;BME280;52445;52.466;-1.016;2023-05-25T04:40:13;101422.19;;;14.36;59.33
65718;BME280;52445;52.466;-1.016;2023-05-25T04:42:40;101430.00;;;14.30;59.65
65718;BME280;52445;52.466;-1.016;2023-05-25T04:45:07;101432.56;;;14.25;58.62
65718;BME280;52445;52.466;-1.016;2023-05-25T04:47:36;101436.91;;;14.22;59.12
65718;BME280;52445;52.466;-1.016;2023-05-25T04:50:08;101452.53;;;14.19;58.84
65718;BME280;52445;52.466;-1.016;2023-05-25T04:52:35;101444.69;;;14.14;59.59
65718;BME280;52445;52.466;-1.016;2023-05-25T04:55:02;101448.16;;;14.11;58.89
65718;BME280;52445;52.466;-1.016;2023-05-25T04:57:29;101454.25;;;14.10;59.08
65718;BME280;52445;52.466;-1.016;2023-05-25T04:59:57;101447.25;;;14.09;59.72
65718;BME280;52445;52.466;-1.016;2023-05-25T05:02:24;101453.34;;;14.10;59.13
65718;BME280;52445;52.466;-1.016;2023-05-25T05:04:51;101457.69;;;14.09;59.66
65718;BME280;52445;52.466;-1.016;2023-05-25T05:07:19;101451.63;;;14.09;59.86
65718;BME280;52445;52.466;-1.016;2023-05-25T05:09:47;101462.91;;;14.12;59.27
65718;BME280;52445;52.466;-1.016;2023-05-25T05:12:14;101459.47;;;14.20;59.45
65718;BME280;52445;52.466;-1.016;2023-05-25T05:14:41;101468.19;;;14.22;59.73
65718;BME280;52445;52.466;-1.016;2023-05-25T05:17:07;101466.44;;;14.24;60.42
65718;BME280;52445;52.466;-1.016;2023-05-25T05:19:34;101470.81;;;14.30;60.36
65718;BME280;52445;52.466;-1.016;2023-05-25T05:22:01;101463.03;;;14.34;59.47
65718;BME280;52445;52.466;-1.016;2023-05-25T05:24:27;101469.09;;;14.36;59.86
65718;BME280;52445;52.466;-1.016;2023-05-25T05:26:54;101470.88;;;14.42;60.51
65718;BME280;52445;52.466;-1.016;2023-05-25T05:29:25;101466.56;;;14.52;60.13
65718;BME280;52445;52.466;-1.016;2023-05-25T05:31:54;101475.31;;;14.60;59.95
65718;BME280;52445;52.466;-1.016;2023-05-25T05:34:21;101484.00;;;14.69;59.70
65718;BME280;52445;52.466;-1.016;2023-05-25T05:36:48;101484.88;;;14.71;59.91
65718;BME280;52445;52.466;-1.016;2023-05-25T05:39:23;101484.06;;;14.80;60.11
65718;BME280;52445;52.466;-1.016;2023-05-25T05:41:50;101483.22;;;14.87;59.75
65718;BME280;52445;52.466;-1.016;2023-05-25T05:44:17;101482.38;;;14.93;59.95
65718;BME280;52445;52.466;-1.016;2023-05-25T05:46:43;101477.16;;;15.02;60.09
65718;BME280;52445;52.466;-1.016;2023-05-25T05:49:10;101480.63;;;15.10;60.08
65718;BME280;52445;52.466;-1.016;2023-05-25T05:51:37;101484.13;;;15.22;59.89
65718;BME280;52445;52.466;-1.016;2023-05-25T05:54:04;101491.09;;;15.27;59.61
65718;BME280;52445;52.466;-1.016;2023-05-25T05:56:30;101492.88;;;15.39;59.96
65718;BME280;52445;52.466;-1.016;2023-05-25T05:58:57;101492.84;;;15.52;59.24
65718;BME280;52445;52.466;-1.016;2023-05-25T06:01:24;101497.22;;;15.58;59.18
65718;BME280;52445;52.466;-1.016;2023-05-25T06:03:50;101492.88;;;15.61;59.93
65718;BME280;52445;52.466;-1.016;2023-05-25T06:06:20;101496.31;;;15.76;59.12
65718;BME280;52445;52.466;-1.016;2023-05-25T06:08:47;101495.44;;;15.89;59.76
65718;BME280;52445;52.466;-1.016;2023-05-25T06:11:13;101501.53;;;16.04;59.53
65718;BME280;52445;52.466;-1.016;2023-05-25T06:13:40;101492.78;;;16.11;59.48
65718;BME280;52445;52.466;-1.016;2023-05-25T06:16:06;101487.56;;;16.14;59.22
65718;BME280;52445;52.466;-1.016;2023-05-25T06:18:33;101496.25;;;16.19;58.86
65718;BME280;52445;52.466;-1.016;2023-05-25T06:21:00;101501.44;;;16.35;58.63
65718;BME280;52445;52.466;-1.016;2023-05-25T06:23:27;101510.16;;;16.43;58.14
65718;BME280;52445;52.466;-1.016;2023-05-25T06:25:53;101503.97;;;16.52;58.31
65718;BME280;52445;52.466;-1.016;2023-05-25T06:28:20;101514.38;;;16.71;58.02
65718;BME280;52445;52.466;-1.016;2023-05-25T06:30:47;101517.78;;;16.84;57.87
65718;BME280;52445;52.466;-1.016;2023-05-25T06:33:14;101510.75;;;16.99;57.82
65718;BME280;52445;52.466;-1.016;2023-05-25T06:35:40;101522.03;;;17.13;57.62
65718;BME280;52445;52.466;-1.016;2023-05-25T06:38:07;101514.09;;;17.27;56.89
65718;BME280;52445;52.466;-1.016;2023-05-25T06:40:34;101519.13;;;17.51;56.99
65718;BME280;52445;52.466;-1.016;2023-05-25T06:43:01;101513.72;;;17.72;56.46
65718;BME280;52445;52.466;-1.016;2023-05-25T06:45:27;101514.34;;;17.96;56.50
65718;BME280;52445;52.466;-1.016;2023-05-25T06:47:54;101522.94;;;18.14;56.10
65718;BME280;52445;52.466;-1.016;2023-05-25T06:50:21;101521.78;;;18.37;55.45
65718;BME280;52445;52.466;-1.016;2023-05-25T06:52:47;101530.22;;;18.64;54.96
65718;BME280;52445;52.466;-1.016;2023-05-25T06:55:14;101534.41;;;18.81;53.44
65718;BME280;52445;52.466;-1.016;2023-05-25T06:57:41;101534.22;;;18.93;53.82
65718;BME280;52445;52.466;-1.016;2023-05-25T07:00:10;101537.44;;;19.14;53.52
65718;BME280;52445;52.466;-1.016;2023-05-25T07:02:37;101528.31;;;19.40;53.92
65718;BME280;52445;52.466;-1.016;2023-05-25T07:05:05;101528.00;;;19.59;52.36
65718;BME280;52445;52.466;-1.016;2023-05-25T07:07:32;101535.53;;;19.79;52.22
65718;BME280;52445;52.466;-1.016;2023-05-25T07:10:00;101538.72;;;19.97;51.15
65718;BME280;52445;52.466;-1.016;2023-05-25T07:12:26;101539.41;;;20.10;51.19
65718;BME280;52445;52.466;-1.016;2023-05-25T07:14:53;101537.41;;;20.23;50.98
65718;BME280;52445;52.466;-1.016;2023-05-25T07:17:20;101541.38;;;20.44;50.63
65718;BME280;52445;52.466;-1.016;2023-05-25T07:19:47;101552.28;;;20.68;49.97
65718;BME280;52445;52.466;-1.016;2023-05-25T07:22:15;101550.13;;;20.89;49.68
65718;BME280;52445;52.466;-1.016;2023-05-25T07:24:45;101549.72;;;21.08;49.32
65718;BME280;52445;52.466;-1.016;2023-05-25T07:27:12;101555.66;;;21.16;48.35
65718;BME280;52445;52.466;-1.016;2023-05-25T07:29:39;101550.19;;;21.25;47.95
65718;BME280;52445;52.466;-1.016;2023-05-25T07:32:06;101549.72;;;21.44;47.89
65718;BME280;52445;52.466;-1.016;2023-05-25T07:34:33;101548.47;;;21.61;46.65
65718;BME280;52445;52.466;-1.016;2023-05-25T07:37:00;101551.81;;;21.67;46.57
65718;BME280;52445;52.466;-1.016;2023-05-25T07:39:27;101552.53;;;21.74;46.32
65718;BME280;52445;52.466;-1.016;2023-05-25T07:41:57;101561.00;;;21.87;46.10
65718;BME280;52445;52.466;-1.016;2023-05-25T07:44:24;101557.25;;;21.96;46.05
65718;BME280;52445;52.466;-1.016;2023-05-25T07:46:53;101559.34;;;22.16;45.59
65718;BME280;52445;52.466;-1.016;2023-05-25T07:49:20;101567.69;;;22.32;45.31
65718;BME280;52445;52.466;-1.016;2023-05-25T07:51:47;101561.81;;;22.54;45.44
65718;BME280;52445;52.466;-1.016;2023-05-25T07:54:14;101566.59;;;22.73;44.09
65718;BME280;52445;52.466;-1.016;2023-05-25T07:56:40;101562.94;;;22.77;43.78
65718;BME280;52445;52.466;-1.016;2023-05-25T07:59:10;101561.94;;;22.81;44.16
65718;BME280;52445;52.466;-1.016;2023-05-25T08:01:37;101566.81;;;22.95;43.30
65718;BME280;52445;52.466;-1.016;2023-05-25T08:04:04;101558.63;;;23.03;43.82
65718;BME280;52445;52.466;-1.016;2023-05-25T08:06:31;101560.25;;;23.07;43.33
65718;BME280;52445;52.466;-1.016;2023-05-25T08:08:58;101567.13;;;23.13;42.94
65718;BME280;52445;52.466;-1.016;2023-05-25T08:11:24;101566.81;;;23.24;43.22
65718;BME280;52445;52.466;-1.016;2023-05-25T08:13:54;101566.59;;;23.30;42.60
65718;BME280;52445;52.466;-1.016;2023-05-25T08:16:21;101572.56;;;23.37;42.96
65718;BME280;52445;52.466;-1.016;2023-05-25T08:18:47;101577.06;;;23.33;42.25
65718;BME280;52445;52.466;-1.016;2023-05-25T08:21:15;101574.72;;;23.24;42.62
65718;BME280;52445;52.466;-1.016;2023-05-25T08:23:41;101581.28;;;23.41;42.83
65718;BME280;52445;52.466;-1.016;2023-05-25T08:26:10;101578.84;;;23.61;43.00
65718;BME280;52445;52.466;-1.016;2023-05-25T08:28:57;101584.53;;;23.76;42.93
65718;BME280;52445;52.466;-1.016;2023-05-25T08:31:23;101584.44;;;23.79;42.00
65718;BME280;52445;52.466;-1.016;2023-05-25T08:33:50;101588.38;;;23.93;42.42
65718;BME280;52445;52.466;-1.016;2023-05-25T08:36:17;101583.66;;;23.75;41.63
65718;BME280;52445;52.466;-1.016;2023-05-25T08:38:43;101578.44;;;23.47;41.74
65718;BME280;52445;52.466;-1.016;2023-05-25T08:41:11;101584.06;;;23.34;41.62
65718;BME280;52445;52.466;-1.016;2023-05-25T08:43:40;101585.34;;;23.22;42.10
65718;BME280;52445;52.466;-1.016;2023-05-25T08:46:08;101586.41;;;23.17;42.11
65718;BME280;52445;52.466;-1.016;2023-05-25T08:48:36;101591.44;;;23.24;42.64
65718;BME280;52445;52.466;-1.016;2023-05-25T08:51:10;101588.66;;;23.29;41.34
65718;BME280;52445;52.466;-1.016;2023-05-25T08:53:39;101585.53;;;23.16;41.95
65718;BME280;52445;52.466;-1.016;2023-05-25T08:56:15;101591.97;;;23.07;42.73
65718;BME280;52445;52.466;-1.016;2023-05-25T08:58:49;101588.13;;;23.18;42.73
65718;BME280;52445;52.466;-1.016;2023-05-25T09:01:21;101598.53;;;23.24;42.24
65718;BME280;52445;52.466;-1.016;2023-05-25T09:03:52;101594.19;;;23.50;42.11
65718;BME280;52445;52.466;-1.016;2023-05-25T09:06:21;101595.53;;;23.64;42.38
65718;BME280;52445;52.466;-1.016;2023-05-25T09:08:49;101605.13;;;23.66;41.72
65718;BME280;52445;52.466;-1.016;2023-05-25T09:11:16;101597.69;;;23.78;41.98
65718;BME280;52445;52.466;-1.016;2023-05-25T09:14:02;101604.53;;;23.85;40.99
65718;BME280;52445;52.466;-1.016;2023-05-25T09:16:30;101602.41;;;23.95;40.47
65718;BME280;52445;52.466;-1.016;2023-05-25T09:18:58;101598.59;;;24.04;41.21
65718;BME280;52445;52.466;-1.016;2023-05-25T09:21:25;101599.81;;;24.20;40.60
65718;BME280;52445;52.466;-1.016;2023-05-25T09:23:52;101597.28;;;24.41;40.58
65718;BME280;52445;52.466;-1.016;2023-05-25T09:26:18;101609.84;;;24.60;40.25
65718;BME280;52445;52.466;-1.016;2023-05-25T09:28:46;101616.72;;;24.65;39.63
65718;BME280;52445;52.466;-1.016;2023-05-25T09:31:14;101612.81;;;24.76;40.11
65718;BME280;52445;52.466;-1.016;2023-05-25T09:33:42;101610.91;;;25.03;41.18
65718;BME280;52445;52.466;-1.016;2023-05-25T09:36:11;101616.59;;;25.16;39.30
65718;BME280;52445;52.466;-1.016;2023-05-25T09:38:39;101617.78;;;24.85;39.02
65718;BME280;52445;52.466;-1.016;2023-05-25T09:41:06;101615.25;;;24.81;39.37
65718;BME280;52445;52.466;-1.016;2023-05-25T09:43:33;101617.22;;;24.75;39.19
65718;BME280;52445;52.466;-1.016;2023-05-25T09:46:12;101619.94;;;24.74;39.05
65718;BME280;52445;52.466;-1.016;2023-05-25T09:48:39;101620.41;;;24.85;39.97
65718;BME280;52445;52.466;-1.016;2023-05-25T09:51:07;101616.41;;;24.99;39.50
65718;BME280;52445;52.466;-1.016;2023-05-25T09:53:34;101621.31;;;25.08;39.34
65718;BME280;52445;52.466;-1.016;2023-05-25T09:56:04;101623.88;;;25.11;38.93
65718;BME280;52445;52.466;-1.016;2023-05-25T09:58:31;101629.16;;;25.11;38.53
65718;BME280;52445;52.466;-1.016;2023-05-25T10:00:58;101623.03;;;25.09;38.91
65718;BME280;52445;52.466;-1.016;2023-05-25T10:03:24;101630.78;;;25.15;38.84
65718;BME280;52445;52.466;-1.016;2023-05-25T10:05:53;101624.19;;;25.02;38.43
65718;BME280;52445;52.466;-1.016;2023-05-25T10:08:20;101625.66;;;24.87;39.36
65718;BME280;52445;52.466;-1.016;2023-05-25T10:10:48;101628.69;;;24.76;38.68
65718;BME280;52445;52.466;-1.016;2023-05-25T10:13:20;101620.97;;;24.46;39.33
65718;BME280;52445;52.466;-1.016;2023-05-25T10:15:52;101623.78;;;24.41;39.77
65718;BME280;52445;52.466;-1.016;2023-05-25T10:18:23;101622.69;;;24.47;39.75
65718;BME280;52445;52.466;-1.016;2023-05-25T10:21:03;101627.69;;;24.31;39.51
65718;BME280;52445;52.466;-1.016;2023-05-25T10:23:37;101627.25;;;24.43;40.15
65718;BME280;52445;52.466;-1.016;2023-05-25T10:26:07;101624.88;;;24.59;39.60
65718;BME280;52445;52.466;-1.016;2023-05-25T10:28:36;101635.72;;;24.77;40.20
65718;BME280;52445;52.466;-1.016;2023-05-25T10:31:05;101633.09;;;25.01;39.87
65718;BME280;52445;52.466;-1.016;2023-05-25T10:33:32;101630.88;;;25.12;39.89
65718;BME280;52445;52.466;-1.016;2023-05-25T10:36:02;101632.47;;;25.16;39.40
65718;BME280;52445;52.466;-1.016;2023-05-25T10:38:34;101638.94;;;25.09;38.84
65718;BME280;52445;52.466;-1.016;2023-05-25T10:41:04;101644.78;;;24.95;38.95
65718;BME280;52445;52.466;-1.016;2023-05-25T10:43:31;101647.88;;;25.07;39.46
65718;BME280;52445;52.466;-1.016;2023-05-25T10:45:58;101642.59;;;25.29;39.42
65718;BME280;52445;52.466;-1.016;2023-05-25T10:48:46;101656.19;;;25.44;39.04
65718;BME280;52445;52.466;-1.016;2023-05-25T10:51:14;101648.06;;;25.71;39.42
65718;BME280;52445;52.466;-1.016;2023-05-25T10:53:45;101649.34;;;25.83;38.41
65718;BME280;52445;52.466;-1.016;2023-05-25T10:56:13;101642.22;;;25.83;38.26
65718;BME280;52445;52.466;-1.016;2023-05-25T10:58:42;101659.50;;;25.49;37.56
65718;BME280;52445;52.466;-1.016;2023-05-25T11:01:12;101648.78;;;25.29;38.77
65718;BME280;52445;52.466;-1.016;2023-05-25T11:06:20;101651.94;;;25.62;37.20
65718;BME280;52445;52.466;-1.016;2023-05-25T11:17:13;101658.66;;;25.26;37.80
65718;BME280;52445;52.466;-1.016;2023-05-25T11:24:58;101654.72;;;25.59;37.10
65718;BME280;52445;52.466;-1.016;2023-05-25T11:27:27;101646.06;;;25.31;38.41
65718;BME280;52445;52.466;-1.016;2023-05-25T11:29:56;101637.84;;;25.37;38.39
65718;BME280;52445;52.466;-1.016;2023-05-25T11:32:23;101634.69;;;25.05;37.98
65718;BME280;52445;52.466;-1.016;2023-05-25T11:34:52;101643.13;;;24.93;38.36
65718;BME280;52445;52.466;-1.016;2023-05-25T11:37:22;101631.72;;;24.65;38.90
65718;BME280;52445;52.466;-1.016;2023-05-25T11:39:51;101633.38;;;24.44;39.33
65718;BME280;52445;52.466;-1.016;2023-05-25T11:42:20;101639.03;;;24.34;39.27
65718;BME280;52445;52.466;-1.016;2023-05-25T11:44:47;101629.28;;;24.09;39.52
65718;BME280;52445;52.466;-1.016;2023-05-25T11:47:14;101622.47;;;24.02;40.25
65718;BME280;52445;52.466;-1.016;2023-05-25T11:49:45;101630.50;;;23.99;40.09
65718;BME280;52445;52.466;-1.016;2023-05-25T11:52:14;101627.25;;;23.91;40.15
65718;BME280;52445;52.466;-1.016;2023-05-25T11:54:42;101623.19;;;23.80;40.35
65718;BME280;52445;52.466;-1.016;2023-05-25T11:57:18;101622.44;;;23.77;40.17
65718;BME280;52445;52.466;-1.016;2023-05-25T11:59:48;101613.09;;;23.92;41.07
65718;BME280;52445;52.466;-1.016;2023-05-25T12:02:15;101614.63;;;23.99;40.19
65718;BME280;52445;52.466;-1.016;2023-05-25T12:04:59;101615.56;;;23.98;40.79
65718;BME280;52445;52.466;-1.016;2023-05-25T12:07:29;101621.97;;;24.18;40.85
65718;BME280;52445;52.466;-1.016;2023-05-25T12:10:13;101620.75;;;24.26;40.50
65718;BME280;52445;52.466;-1.016;2023-05-25T12:12:47;101621.41;;;24.33;40.69
65718;BME280;52445;52.466;-1.016;2023-05-25T12:15:19;101622.84;;;24.17;39.79
65718;BME280;52445;52.466;-1.016;2023-05-25T12:17:46;101613.59;;;24.03;40.47
65718;BME280;52445;52.466;-1.016;2023-05-25T12:20:15;101620.72;;;24.01;40.09
65718;BME280;52445;52.466;-1.016;2023-05-25T12:22:43;101621.50;;;24.05;40.75
65718;BME280;52445;52.466;-1.016;2023-05-25T12:25:12;101633.44;;;24.17;41.16
65718;BME280;52445;52.466;-1.016;2023-05-25T12:27:39;101636.28;;;24.10;40.91
65718;BME280;52445;52.466;-1.016;2023-05-25T12:30:08;101636.97;;;24.17;40.28
65718;BME280;52445;52.466;-1.016;2023-05-25T12:33:02;101628.44;;;24.07;39.89
65718;BME280;52445;52.466;-1.016;2023-05-25T12:35:43;101623.31;;;24.03;40.36
65718;BME280;52445;52.466;-1.016;2023-05-25T12:38:16;101624.94;;;24.07;40.95
65718;BME280;52445;52.466;-1.016;2023-05-25T12:40:43;101630.78;;;24.17;41.28
65718;BME280;52445;52.466;-1.016;2023-05-25T12:43:11;101635.16;;;24.19;40.95
65718;BME280;52445;52.466;-1.016;2023-05-25T12:45:40;101634.06;;;24.25;41.27
65718;BME280;52445;52.466;-1.016;2023-05-25T12:48:07;101635.88;;;24.23;41.39
65718;BME280;52445;52.466;-1.016;2023-05-25T12:50:34;101637.56;;;24.25;41.37
65718;BME280;52445;52.466;-1.016;2023-05-25T12:53:03;101635.34;;;24.13;40.87
65718;BME280;52445;52.466;-1.016;2023-05-25T12:55:31;101647.41;;;24.22;40.93
65718;BME280;52445;52.466;-1.016;2023-05-25T12:58:02;101635.69;;;24.29;40.47
65718;BME280;52445;52.466;-1.016;2023-05-25T13:03:06;101650.16;;;24.19;40.03
65718;BME280;52445;52.466;-1.016;2023-05-25T13:05:35;101649.81;;;24.01;40.44
65718;BME280;52445;52.466;-1.016;2023-05-25T13:08:03;101648.75;;;23.80;40.79
65718;BME280;52445;52.466;-1.016;2023-05-25T13:10:32;101652.81;;;23.63;41.09
65718;BME280;52445;52.466;-1.016;2023-05-25T13:12:59;101654.69;;;23.61;40.84